Time;durP1;ratioP1;P1;durP2;ratioP2;P2;SDS_P1;SDS_P2;PMS_P1;PMS_P2;Temp;Humidity;BMP_temperature;BMP_pressure;BME280_temperature;BME280_humidity;BME280_pressure;Samples;Min_cycle;Max_cycle;Signal;HPM_P1;HPM_P2
2023/11/12 00:00:07;;;;;;;3.15;2.65;;;;;;;;;;5042084;28;20494;-82
2023/11/12 00:02:33;;;;;;;3.35;2.92;;;;;;;;;;5041821;28;20748;-82
2023/11/12 00:04:59;;;;;;;3.25;2.80;;;;;;;;;;5041473;28;20462;-82
2023/11/12 00:07:25;;;;;;;4.53;3.10;;;;;;;;;;5042072;28;20425;-82
2023/11/12 00:09:51;;;;;;;4.20;3.80;;;;;;;;;;5042090;28;20833;-82
2023/11/12 00:12:19;;;;;;;2.47;2.28;;;;;;;;;;5041848;28;20829;-81
2023/11/12 00:14:45;;;;;;;3.23;2.87;;;;;;;;;;5042341;28;20386;-82
2023/11/12 00:17:13;;;;;;;4.60;2.42;;;;;;;;;;5041382;28;20415;-82
2023/11/12 00:19:39;;;;;;;2.40;2.20;;;;;;;;;;5042011;28;20447;-82
2023/11/12 00:22:09;;;;;;;2.88;2.20;;;;;;;;;;5040165;28;20893;-81
2023/11/12 00:24:35;;;;;;;2.40;2.20;;;;;;;;;;5042067;28;20437;-82
2023/11/12 00:27:01;;;;;;;2.13;1.80;;;;;;;;;;5041414;28;20383;-82
2023/11/12 00:29:27;;;;;;;2.08;1.88;;;;;;;;;;5041768;28;20910;-82
2023/11/12 00:31:53;;;;;;;2.67;2.33;;;;;;;;;;5041275;28;20557;-82
2023/11/12 00:34:19;;;;;;;3.20;2.38;;;;;;;;;;5041107;28;20387;-82
2023/11/12 00:36:45;;;;;;;2.90;2.58;;;;;;;;;;5041273;28;20781;-82
2023/11/12 00:39:11;;;;;;;3.20;2.60;;;;;;;;;;5041515;28;20391;-82
2023/11/12 00:41:38;;;;;;;3.65;3.10;;;;;;;;;;5041207;28;20849;-82
2023/11/12 00:44:04;;;;;;;3.28;3.05;;;;;;;;;;5041460;28;20395;-82
2023/11/12 00:46:30;;;;;;;3.47;3.17;;;;;;;;;;5041152;28;20396;-82
2023/11/12 00:48:57;;;;;;;3.80;3.50;;;;;;;;;;5023341;28;20395;-82
2023/11/12 00:51:24;;;;;;;5.40;4.82;;;;;;;;;;5023211;28;20745;-82
2023/11/12 00:53:50;;;;;;;5.43;4.93;;;;;;;;;;5041870;28;20473;-81
2023/11/12 00:56:16;;;;;;;4.28;3.88;;;;;;;;;;5023517;28;20741;-81
2023/11/12 00:58:42;;;;;;;2.85;2.65;;;;;;;;;;5029770;28;20389;-82
2023/11/12 01:01:09;;;;;;;3.67;3.22;;;;;;;;;;5027489;28;20377;-82
2023/11/12 01:03:34;;;;;;;4.05;3.67;;;;;;;;;;5036213;28;21087;-82
2023/11/12 01:06:04;;;;;;;3.13;2.90;;;;;;;;;;5039058;28;20525;-82
2023/11/12 01:08:30;;;;;;;2.97;2.70;;;;;;;;;;5040898;28;20379;-82
2023/11/12 01:10:56;;;;;;;3.13;2.75;;;;;;;;;;5023398;28;20764;-82
2023/11/12 01:13:22;;;;;;;3.30;3.00;;;;;;;;;;5040436;28;20451;-82
2023/11/12 01:15:49;;;;;;;2.85;2.60;;;;;;;;;;5040841;28;20422;-82
2023/11/12 01:18:16;;;;;;;3.50;3.20;;;;;;;;;;5040814;28;20446;-82
2023/11/12 01:20:42;;;;;;;3.28;2.97;;;;;;;;;;5022992;28;20391;-82
2023/11/12 01:23:08;;;;;;;3.50;3.00;;;;;;;;;;5040949;28;20447;-82
2023/11/12 01:25:34;;;;;;;3.25;2.95;;;;;;;;;;5040640;28;20410;-82
2023/11/12 01:28:02;;;;;;;3.95;3.30;;;;;;;;;;5040690;28;20409;-82
2023/11/12 01:30:28;;;;;;;3.20;2.90;;;;;;;;;;5022827;28;20418;-82
2023/11/12 01:32:54;;;;;;;3.33;3.00;;;;;;;;;;5040319;28;20422;-82
2023/11/12 01:35:20;;;;;;;3.70;3.40;;;;;;;;;;5040648;28;20379;-82
2023/11/12 01:37:47;;;;;;;3.10;2.90;;;;;;;;;;5039808;28;20394;-82
2023/11/12 01:40:16;;;;;;;3.35;3.05;;;;;;;;;;5040366;28;20434;-82
2023/11/12 01:42:43;;;;;;;4.47;3.80;;;;;;;;;;5040129;28;20854;-82
2023/11/12 01:45:09;;;;;;;5.63;4.75;;;;;;;;;;5040348;28;20410;-82
2023/11/12 01:47:36;;;;;;;5.67;5.07;;;;;;;;;;5022862;28;20387;-82
2023/11/12 01:50:03;;;;;;;5.43;4.60;;;;;;;;;;5040629;28;20435;-82
2023/11/12 01:52:29;;;;;;;5.47;4.63;;;;;;;;;;5039763;28;20415;-82
2023/11/12 01:54:56;;;;;;;4.00;3.60;;;;;;;;;;5039935;28;20431;-82
2023/11/12 01:57:22;;;;;;;3.95;3.65;;;;;;;;;;5039901;28;20426;-82
2023/11/12 01:59:48;;;;;;;6.10;5.47;;;;;;;;;;5040106;28;20383;-82
2023/11/12 02:02:14;;;;;;;4.50;4.10;;;;;;;;;;5022029;28;20890;-82
2023/11/12 02:04:40;;;;;;;4.80;4.30;;;;;;;;;;5040587;28;20390;-82
2023/11/12 02:07:06;;;;;;;4.60;4.20;;;;;;;;;;5039724;28;20387;-82
2023/11/12 02:09:32;;;;;;;4.63;4.22;;;;;;;;;;5039876;28;20427;-82
2023/11/12 02:11:58;;;;;;;4.95;3.90;;;;;;;;;;5037098;28;20383;-81
2023/11/12 02:14:25;;;;;;;4.47;4.07;;;;;;;;;;5037483;28;20383;-81
2023/11/12 02:16:52;;;;;;;4.20;3.80;;;;;;;;;;5038123;28;20422;-82
2023/11/12 02:19:27;;;;;;;3.80;3.50;;;;;;;;;;5039202;28;20462;-81
2023/11/12 02:21:53;;;;;;;3.80;3.40;;;;;;;;;;5040213;28;20379;-81
2023/11/12 02:24:20;;;;;;;3.30;3.08;;;;;;;;;;5039899;28;20379;-82
2023/11/12 02:26:47;;;;;;;3.20;2.90;;;;;;;;;;5055923;28;20394;-83
2023/11/12 02:29:15;;;;;;;3.60;3.30;;;;;;;;;;5041016;28;20391;-82
2023/11/12 02:31:41;;;;;;;3.00;2.80;;;;;;;;;;5040658;28;20469;-82
2023/11/12 02:34:07;;;;;;;3.40;3.00;;;;;;;;;;5040460;28;20391;-82
2023/11/12 02:36:35;;;;;;;2.92;2.72;;;;;;;;;;5055524;28;20416;-82
2023/11/12 02:39:01;;;;;;;3.20;2.90;;;;;;;;;;5040686;28;20872;-82
2023/11/12 02:41:27;;;;;;;3.38;3.08;;;;;;;;;;5040448;28;20525;-82
2023/11/12 02:43:55;;;;;;;3.45;3.15;;;;;;;;;;5039334;28;20402;-82
2023/11/12 02:46:21;;;;;;;3.08;2.88;;;;;;;;;;5040138;28;20378;-82
2023/11/12 02:49:05;;;;;;;3.05;2.80;;;;;;;;;;5040260;28;20429;-82
2023/11/12 02:51:31;;;;;;;3.38;3.17;;;;;;;;;;5040173;28;20379;-82
2023/11/12 02:53:57;;;;;;;2.80;2.60;;;;;;;;;;5055700;28;20592;-82
2023/11/12 02:56:23;;;;;;;3.20;2.90;;;;;;;;;;5037381;28;20418;-82
2023/11/12 02:58:49;;;;;;;2.50;2.30;;;;;;;;;;5039690;28;20870;-82
2023/11/12 03:01:17;;;;;;;2.83;2.60;;;;;;;;;;5039836;28;20467;-83
2023/11/12 03:03:43;;;;;;;2.53;2.33;;;;;;;;;;5040122;28;20387;-82
2023/11/12 03:06:09;;;;;;;2.63;2.43;;;;;;;;;;5041028;28;20402;-82
2023/11/12 03:08:35;;;;;;;2.47;2.28;;;;;;;;;;5040933;28;20406;-82
2023/11/12 03:11:04;;;;;;;2.42;2.22;;;;;;;;;;5040864;28;20841;-82
2023/11/12 03:13:30;;;;;;;2.80;2.60;;;;;;;;;;5041904;28;20399;-82
2023/11/12 03:15:56;;;;;;;2.60;2.30;;;;;;;;;;5040489;28;20464;-82
2023/11/12 03:18:25;;;;;;;2.58;2.38;;;;;;;;;;5040782;28;20383;-82
2023/11/12 03:20:51;;;;;;;2.60;2.40;;;;;;;;;;5041354;28;20438;-82
2023/11/12 03:23:18;;;;;;;2.60;2.40;;;;;;;;;;5022731;28;20395;-82
2023/11/12 03:25:44;;;;;;;2.58;2.38;;;;;;;;;;5040646;28;20391;-82
2023/11/12 03:28:10;;;;;;;2.45;2.25;;;;;;;;;;5040042;28;20847;-82
2023/11/12 03:30:39;;;;;;;2.65;2.28;;;;;;;;;;5025615;28;20379;-82
2023/11/12 03:33:06;;;;;;;2.67;2.47;;;;;;;;;;5043762;28;20398;-82
2023/11/12 03:35:32;;;;;;;3.28;2.50;;;;;;;;;;5042603;28;20928;-82
2023/11/12 03:37:58;;;;;;;2.80;2.60;;;;;;;;;;5043395;28;20394;-82
2023/11/12 03:40:24;;;;;;;2.53;2.33;;;;;;;;;;5042855;28;20390;-82
2023/11/12 03:42:51;;;;;;;2.35;2.15;;;;;;;;;;5043015;28;20395;-82
2023/11/12 03:45:17;;;;;;;3.15;2.95;;;;;;;;;;5043111;28;20430;-82
2023/11/12 03:47:43;;;;;;;3.30;3.05;;;;;;;;;;5042231;28;20740;-82
2023/11/12 03:50:09;;;;;;;3.03;2.83;;;;;;;;;;5042904;28;20406;-82
2023/11/12 03:52:35;;;;;;;3.70;3.40;;;;;;;;;;5042821;28;20390;-82
2023/11/12 03:55:06;;;;;;;3.33;3.03;;;;;;;;;;5043805;28;20399;-82
2023/11/12 03:57:32;;;;;;;3.75;3.45;;;;;;;;;;5044008;28;20418;-82
2023/11/12 03:59:59;;;;;;;3.70;3.40;;;;;;;;;;5042487;28;20379;-83
2023/11/12 04:02:25;;;;;;;5.10;4.03;;;;;;;;;;5042787;28;20432;-82
2023/11/12 04:04:52;;;;;;;3.63;3.33;;;;;;;;;;5042213;28;20425;-82
2023/11/12 04:07:18;;;;;;;3.80;3.45;;;;;;;;;;5042962;28;20379;-81
2023/11/12 04:09:44;;;;;;;3.88;3.30;;;;;;;;;;5025214;28;20390;-82
2023/11/12 04:12:11;;;;;;;3.17;2.80;;;;;;;;;;5042773;28;20873;-82
2023/11/12 04:14:37;;;;;;;5.22;3.67;;;;;;;;;;5024990;28;20794;-82
2023/11/12 04:17:04;;;;;;;7.50;5.10;;;;;;;;;;5042466;28;20437;-82
2023/11/12 04:19:30;;;;;;;11.38;7.60;;;;;;;;;;5043736;28;20378;-82
2023/11/12 04:21:56;;;;;;;11.87;7.83;;;;;;;;;;5042372;28;20454;-82
2023/11/12 04:24:22;;;;;;;8.75;7.30;;;;;;;;;;5043008;28;20382;-82
2023/11/12 04:26:48;;;;;;;9.48;7.90;;;;;;;;;;5057972;28;20406;-82
2023/11/12 04:29:14;;;;;;;14.80;9.40;;;;;;;;;;5042936;28;20383;-82
2023/11/12 04:31:40;;;;;;;13.77;9.60;;;;;;;;;;5058536;28;20438;-82
2023/11/12 04:34:07;;;;;;;17.30;11.93;;;;;;;;;;5042684;28;20438;-82
2023/11/12 04:36:35;;;;;;;20.83;12.88;;;;;;;;;;5043128;28;20649;-82
2023/11/12 04:39:01;;;;;;;18.08;12.50;;;;;;;;;;5042586;28;20375;-82
2023/11/12 04:41:27;;;;;;;18.43;12.13;;;;;;;;;;5043038;28;20387;-82
2023/11/12 04:43:53;;;;;;;19.05;12.77;;;;;;;;;;5042656;28;20390;-82
2023/11/12 04:46:20;;;;;;;19.70;12.45;;;;;;;;;;5042450;28;20406;-82
2023/11/12 04:48:46;;;;;;;18.33;11.63;;;;;;;;;;5041948;28;20394;-82
2023/11/12 04:51:13;;;;;;;15.55;10.07;;;;;;;;;;5042527;28;20375;-82
2023/11/12 04:53:40;;;;;;;10.40;6.95;;;;;;;;;;5042063;28;20876;-83
2023/11/12 04:56:10;;;;;;;10.73;7.43;;;;;;;;;;5042229;28;20403;-82
2023/11/12 04:58:36;;;;;;;9.75;7.28;;;;;;;;;;5042997;28;20792;-82
2023/11/12 05:01:03;;;;;;;11.20;7.10;;;;;;;;;;5041633;28;20383;-82
2023/11/12 05:03:31;;;;;;;8.50;5.63;;;;;;;;;;5042142;28;20399;-82
2023/11/12 05:05:58;;;;;;;6.22;4.70;;;;;;;;;;5041079;28;20750;-82
2023/11/12 05:08:24;;;;;;;4.80;4.30;;;;;;;;;;5041639;28;20383;-82
2023/11/12 05:10:50;;;;;;;4.55;4.13;;;;;;;;;;5040743;28;20792;-82
2023/11/12 05:13:16;;;;;;;4.05;3.58;;;;;;;;;;5041427;28;20413;-82
2023/11/12 05:15:42;;;;;;;3.97;3.58;;;;;;;;;;5041476;28;20901;-82
2023/11/12 05:18:08;;;;;;;3.63;3.15;;;;;;;;;;5041203;28;20391;-82
2023/11/12 05:20:34;;;;;;;3.40;3.08;;;;;;;;;;5041541;28;20379;-82
2023/11/12 05:23:02;;;;;;;3.45;3.10;;;;;;;;;;5040819;28;20390;-82
2023/11/12 05:25:28;;;;;;;3.60;3.30;;;;;;;;;;5041415;28;20387;-82
2023/11/12 05:27:54;;;;;;;4.55;4.13;;;;;;;;;;5040833;28;20387;-82
2023/11/12 05:30:21;;;;;;;3.75;3.45;;;;;;;;;;5023235;28;20399;-82
2023/11/12 05:32:47;;;;;;;3.40;3.10;;;;;;;;;;5040968;28;20402;-82
2023/11/12 05:35:14;;;;;;;3.22;2.92;;;;;;;;;;5041205;28;20417;-83
2023/11/12 05:37:40;;;;;;;3.92;3.15;;;;;;;;;;5038552;28;20802;-81
2023/11/12 05:40:06;;;;;;;4.00;3.30;;;;;;;;;;5040482;28;20454;-81
2023/11/12 05:42:34;;;;;;;4.10;3.80;;;;;;;;;;5038789;28;20387;-81
2023/11/12 05:45:00;;;;;;;3.40;3.10;;;;;;;;;;5041367;28;20391;-83
2023/11/12 05:47:26;;;;;;;3.90;3.60;;;;;;;;;;5040874;28;20379;-81
2023/11/12 05:49:52;;;;;;;4.20;3.75;;;;;;;;;;5043111;28;20748;-83
2023/11/12 05:52:18;;;;;;;5.38;4.70;;;;;;;;;;5040742;28;20387;-82
2023/11/12 05:54:44;;;;;;;4.32;4.00;;;;;;;;;;5022323;28;20395;-82
2023/11/12 05:57:10;;;;;;;6.88;5.55;;;;;;;;;;5040180;28;20419;-83
2023/11/12 05:59:36;;;;;;;8.57;7.10;;;;;;;;;;5022742;28;20379;-83
2023/11/12 06:02:02;;;;;;;9.77;7.78;;;;;;;;;;5027117;28;20437;-82
2023/11/12 06:04:28;;;;;;;14.17;10.67;;;;;;;;;;5026959;28;20896;-83
2023/11/12 06:06:54;;;;;;;16.67;10.70;;;;;;;;;;5026909;28;20391;-82
2023/11/12 06:09:20;;;;;;;16.58;11.65;;;;;;;;;;5043926;28;20441;-84
2023/11/12 06:11:47;;;;;;;12.13;9.90;;;;;;;;;;5043630;28;20398;-82
2023/11/12 06:14:14;;;;;;;13.93;10.55;;;;;;;;;;5044275;28;20398;-83
2023/11/12 06:16:40;;;;;;;13.00;8.93;;;;;;;;;;5043402;28;20468;-83
2023/11/12 06:19:06;;;;;;;11.20;8.90;;;;;;;;;;5043900;28;20387;-84
2023/11/12 06:21:32;;;;;;;12.65;8.98;;;;;;;;;;5050591;28;20486;-83
2023/11/12 06:23:58;;;;;;;11.32;8.52;;;;;;;;;;5038291;28;20437;-83
2023/11/12 06:26:24;;;;;;;9.15;8.00;;;;;;;;;;5039044;28;20379;-83
2023/11/12 06:28:50;;;;;;;9.27;7.13;;;;;;;;;;5038869;28;20395;-82
2023/11/12 06:31:17;;;;;;;10.10;7.60;;;;;;;;;;5038760;28;20383;-83
2023/11/12 06:33:43;;;;;;;9.52;8.02;;;;;;;;;;5039990;28;20393;-83
2023/11/12 06:36:13;;;;;;;11.63;7.70;;;;;;;;;;5039270;28;20410;-82
2023/11/12 06:38:40;;;;;;;9.05;8.15;;;;;;;;;;5038418;28;20406;-82
2023/11/12 06:41:06;;;;;;;8.02;7.22;;;;;;;;;;5038071;28;20379;-83
2023/11/12 06:43:32;;;;;;;9.57;8.02;;;;;;;;;;5038416;28;20994;-83
2023/11/12 06:45:58;;;;;;;8.68;7.80;;;;;;;;;;5039073;28;20422;-83
2023/11/12 06:48:24;;;;;;;9.05;7.57;;;;;;;;;;5039010;28;20402;-82
2023/11/12 06:50:50;;;;;;;191.10;84.75;;;;;;;;;;5038758;28;20399;-82
2023/11/12 06:53:16;;;;;;;150.13;55.97;;;;;;;;;;5021929;28;20399;-82
2023/11/12 06:55:42;;;;;;;69.88;36.67;;;;;;;;;;5038812;28;20395;-83
2023/11/12 06:58:08;;;;;;;16.35;11.23;;;;;;;;;;5038515;28;20415;-82
2023/11/12 07:00:38;;;;;;;22.73;15.20;;;;;;;;;;5038661;28;20421;-83
2023/11/12 07:03:04;;;;;;;27.95;17.38;;;;;;;;;;5020248;28;20391;-82
2023/11/12 07:05:32;;;;;;;27.05;17.23;;;;;;;;;;5037939;28;20457;-82
2023/11/12 07:07:58;;;;;;;18.20;13.27;;;;;;;;;;5039670;28;20406;-82
2023/11/12 07:10:24;;;;;;;15.38;12.15;;;;;;;;;;5039603;28;20415;-83
2023/11/12 07:12:50;;;;;;;14.85;11.48;;;;;;;;;;5039571;28;20395;-83
2023/11/12 07:15:17;;;;;;;12.52;10.68;;;;;;;;;;5038964;28;20494;-84
2023/11/12 07:17:45;;;;;;;11.25;10.00;;;;;;;;;;5040467;28;20497;-83
2023/11/12 07:20:11;;;;;;;12.68;10.18;;;;;;;;;;5040996;28;20414;-83
2023/11/12 07:22:37;;;;;;;13.98;10.43;;;;;;;;;;5039647;28;20448;-83
2023/11/12 07:25:07;;;;;;;13.20;10.00;;;;;;;;;;5038925;28;20721;-84
2023/11/12 07:27:35;;;;;;;13.50;10.60;;;;;;;;;;5039130;28;20902;-84
2023/11/12 07:30:01;;;;;;;15.95;11.38;;;;;;;;;;5038458;28;20394;-84
2023/11/12 07:32:27;;;;;;;12.10;9.98;;;;;;;;;;5021231;28;20427;-83
2023/11/12 07:34:53;;;;;;;11.90;9.68;;;;;;;;;;5038585;28;20872;-82
2023/11/12 07:37:19;;;;;;;15.65;11.70;;;;;;;;;;5037305;28;20411;-83
2023/11/12 07:39:45;;;;;;;16.15;11.30;;;;;;;;;;5020870;28;20451;-82
2023/11/12 07:42:11;;;;;;;16.60;12.03;;;;;;;;;;5038376;28;20469;-82
2023/11/12 07:44:37;;;;;;;12.32;10.40;;;;;;;;;;5039028;28;20391;-83
2023/11/12 07:47:04;;;;;;;12.93;11.00;;;;;;;;;;5038484;28;20386;-83
2023/11/12 07:49:31;;;;;;;15.93;11.48;;;;;;;;;;5038989;28;20783;-83
2023/11/12 07:51:57;;;;;;;12.03;10.73;;;;;;;;;;5022463;28;20395;-83
2023/11/12 07:54:23;;;;;;;12.13;9.85;;;;;;;;;;5039276;28;20391;-83
2023/11/12 07:56:49;;;;;;;11.85;10.05;;;;;;;;;;5039501;28;20502;-82
2023/11/12 07:59:15;;;;;;;14.77;11.18;;;;;;;;;;5022692;28;20383;-83
2023/11/12 08:01:41;;;;;;;13.73;11.30;;;;;;;;;;5040368;28;20928;-83
2023/11/12 08:04:10;;;;;;;13.73;11.05;;;;;;;;;;5040309;28;20419;-83
2023/11/12 08:06:36;;;;;;;11.93;10.13;;;;;;;;;;5040464;28;20383;-83
2023/11/12 08:09:02;;;;;;;12.65;10.10;;;;;;;;;;5039069;28;20398;-83
2023/11/12 08:11:28;;;;;;;11.43;9.80;;;;;;;;;;5039336;28;20379;-83
2023/11/12 08:13:54;;;;;;;11.68;9.85;;;;;;;;;;5038035;28;20397;-83
2023/11/12 08:16:20;;;;;;;12.95;10.80;;;;;;;;;;5040341;28;20482;-83
2023/11/12 08:18:46;;;;;;;15.50;11.73;;;;;;;;;;5040178;28;20525;-82
2023/11/12 08:21:13;;;;;;;13.70;11.43;;;;;;;;;;5039977;28;20379;-82
2023/11/12 08:23:39;;;;;;;13.63;10.55;;;;;;;;;;5040044;28;20406;-83
2023/11/12 08:26:05;;;;;;;10.98;9.82;;;;;;;;;;5022217;28;20450;-82
2023/11/12 08:28:32;;;;;;;14.50;10.90;;;;;;;;;;5040718;28;20391;-82
2023/11/12 08:30:58;;;;;;;11.85;10.18;;;;;;;;;;5040079;28;20387;-82
2023/11/12 08:33:24;;;;;;;13.68;11.13;;;;;;;;;;5038353;28;20406;-82
2023/11/12 08:35:52;;;;;;;11.38;9.40;;;;;;;;;;5036893;28;21251;-81
2023/11/12 08:38:18;;;;;;;11.50;10.07;;;;;;;;;;5040485;28;20421;-81
2023/11/12 08:40:45;;;;;;;11.85;10.65;;;;;;;;;;5022853;28;20402;-82
2023/11/12 08:43:13;;;;;;;15.40;11.73;;;;;;;;;;5039092;28;20857;-82
2023/11/12 08:45:40;;;;;;;13.70;11.70;;;;;;;;;;5038680;28;20395;-82
2023/11/12 08:48:06;;;;;;;13.65;12.20;;;;;;;;;;5037960;28;20857;-81
2023/11/12 08:50:32;;;;;;;14.93;12.70;;;;;;;;;;5038159;28;20437;-82
2023/11/12 08:53:01;;;;;;;12.68;11.30;;;;;;;;;;5037790;28;20425;-82
2023/11/12 08:55:27;;;;;;;12.00;10.47;;;;;;;;;;5037564;28;20491;-81
2023/11/12 08:57:53;;;;;;;13.98;11.70;;;;;;;;;;5037791;28;20411;-82
2023/11/12 09:00:20;;;;;;;12.43;10.85;;;;;;;;;;5037960;28;20394;-82
2023/11/12 09:02:46;;;;;;;17.65;12.45;;;;;;;;;;5019459;28;20395;-82
2023/11/12 09:05:12;;;;;;;16.67;12.52;;;;;;;;;;5038741;28;20387;-83
2023/11/12 09:07:39;;;;;;;17.40;13.30;;;;;;;;;;5037899;28;20375;-83
2023/11/12 09:10:05;;;;;;;19.33;14.15;;;;;;;;;;5038385;28;20474;-81
2023/11/12 09:12:32;;;;;;;18.65;13.55;;;;;;;;;;5037770;28;20409;-82
2023/11/12 09:14:58;;;;;;;16.15;12.18;;;;;;;;;;5038291;28;20386;-81
2023/11/12 09:17:24;;;;;;;18.92;12.55;;;;;;;;;;5019702;28;20430;-82
2023/11/12 09:19:50;;;;;;;16.67;12.35;;;;;;;;;;5036961;28;20387;-81
2023/11/12 09:22:16;;;;;;;18.80;13.00;;;;;;;;;;5037607;28;20391;-82
2023/11/12 09:24:46;;;;;;;18.95;13.18;;;;;;;;;;5037569;28;20375;-81
2023/11/12 09:27:12;;;;;;;16.75;12.23;;;;;;;;;;5037516;28;20460;-83
2023/11/12 09:29:38;;;;;;;15.27;11.65;;;;;;;;;;5038309;28;20478;-82
2023/11/12 09:32:04;;;;;;;15.27;11.50;;;;;;;;;;5037672;28;20383;-83
2023/11/12 09:34:31;;;;;;;12.90;9.60;;;;;;;;;;5037779;28;20413;-82
2023/11/12 09:36:57;;;;;;;11.25;9.40;;;;;;;;;;5037946;28;20758;-82
2023/11/12 09:39:23;;;;;;;12.27;9.35;;;;;;;;;;5037262;28;20505;-82
2023/11/12 09:41:51;;;;;;;11.25;9.15;;;;;;;;;;5037449;28;20372;-81
2023/11/12 09:44:18;;;;;;;10.95;8.85;;;;;;;;;;5037726;28;20383;-82
2023/11/12 09:46:49;;;;;;;9.63;8.40;;;;;;;;;;5037667;28;20391;-82
2023/11/12 09:49:15;;;;;;;9.55;8.65;;;;;;;;;;5037684;28;20395;-82
2023/11/12 09:51:42;;;;;;;9.00;8.13;;;;;;;;;;5037639;28;20433;-82
2023/11/12 09:54:08;;;;;;;8.35;7.55;;;;;;;;;;5036825;28;20406;-82
2023/11/12 09:56:37;;;;;;;9.20;7.63;;;;;;;;;;5038237;28;20415;-83
2023/11/12 09:59:04;;;;;;;7.47;6.78;;;;;;;;;;5038416;28;20497;-82
2023/11/12 10:01:32;;;;;;;7.10;6.40;;;;;;;;;;5038060;28;20725;-82
2023/11/12 10:03:58;;;;;;;6.70;6.00;;;;;;;;;;5038493;28;20383;-81
2023/11/12 10:06:25;;;;;;;7.20;6.15;;;;;;;;;;5038168;28;20710;-82
2023/11/12 10:08:51;;;;;;;7.53;6.72;;;;;;;;;;5038081;28;20809;-82
2023/11/12 10:11:18;;;;;;;6.55;5.95;;;;;;;;;;5036856;28;20907;-83
2023/11/12 10:13:44;;;;;;;7.10;6.40;;;;;;;;;;5036648;28;20399;-82
2023/11/12 10:16:29;;;;;;;7.22;6.13;;;;;;;;;;5037155;28;20419;-81
2023/11/12 10:19:08;;;;;;;7.13;6.28;;;;;;;;;;5037928;28;20387;-82
2023/11/12 10:21:34;;;;;;;4.53;4.20;;;;;;;;;;5037885;28;20836;-82
2023/11/12 10:24:04;;;;;;;4.10;3.08;;;;;;;;;;5038668;28;20398;-82
2023/11/12 10:26:34;;;;;;;3.13;2.90;;;;;;;;;;5038325;28;20494;-82
2023/11/12 10:29:00;;;;;;;3.03;2.80;;;;;;;;;;5037543;28;20379;-81
2023/11/12 10:31:36;;;;;;;2.50;2.30;;;;;;;;;;5037420;28;20387;-81
2023/11/12 10:34:02;;;;;;;2.40;2.20;;;;;;;;;;5038418;28;20462;-82
2023/11/12 10:36:28;;;;;;;3.00;2.70;;;;;;;;;;5037950;28;20510;-81
2023/11/12 10:38:54;;;;;;;2.10;1.90;;;;;;;;;;5038522;28;20418;-82
2023/11/12 10:41:20;;;;;;;2.35;2.05;;;;;;;;;;5048769;28;20387;-82
2023/11/12 10:43:57;;;;;;;1.98;1.80;;;;;;;;;;5039208;28;20745;-82
2023/11/12 10:46:24;;;;;;;1.83;1.73;;;;;;;;;;5038144;28;20391;-82
2023/11/12 10:48:52;;;;;;;2.10;1.90;;;;;;;;;;5038242;28;20410;-82
2023/11/12 10:51:19;;;;;;;2.10;2.00;;;;;;;;;;5038018;28;20398;-82
2023/11/12 10:53:45;;;;;;;2.20;2.00;;;;;;;;;;5038155;28;20783;-82
2023/11/12 10:56:11;;;;;;;2.67;2.47;;;;;;;;;;5037396;28;20417;-82
2023/11/12 10:58:37;;;;;;;3.47;3.17;;;;;;;;;;5038394;28;20884;-82
2023/11/12 11:01:06;;;;;;;3.33;3.03;;;;;;;;;;5038251;28;20398;-82
2023/11/12 11:03:33;;;;;;;2.78;2.58;;;;;;;;;;5037886;28;20860;-82
2023/11/12 11:06:01;;;;;;;3.22;2.92;;;;;;;;;;5037156;28;20384;-82
2023/11/12 11:08:31;;;;;;;3.50;3.20;;;;;;;;;;5040507;28;20379;-82
2023/11/12 11:11:01;;;;;;;3.42;3.17;;;;;;;;;;5040804;28;20533;-82
2023/11/12 11:13:27;;;;;;;2.97;2.78;;;;;;;;;;5037627;28;20379;-81
2023/11/12 11:15:55;;;;;;;4.55;4.15;;;;;;;;;;5039178;28;21048;-81
2023/11/12 11:18:31;;;;;;;1.77;1.67;;;;;;;;;;5038438;28;20398;-82
2023/11/12 11:21:04;;;;;;;1.95;1.85;;;;;;;;;;5037796;28;20383;-81
2023/11/12 11:23:45;;;;;;;2.30;2.10;;;;;;;;;;5040079;28;20555;-82
2023/11/12 11:26:30;;;;;;;2.27;2.00;;;;;;;;;;5018986;28;20457;-81
2023/11/12 11:29:04;;;;;;;2.97;2.72;;;;;;;;;;5037729;28;20592;-81
2023/11/12 11:31:30;;;;;;;2.80;2.60;;;;;;;;;;5038964;28;20448;-82
2023/11/12 11:33:58;;;;;;;2.60;2.40;;;;;;;;;;5019396;28;20432;-80
2023/11/12 11:36:25;;;;;;;2.40;2.20;;;;;;;;;;5036912;28;20898;-81
2023/11/12 11:39:06;;;;;;;2.22;2.03;;;;;;;;;;5037181;28;20470;-82
2023/11/12 11:41:51;;;;;;;2.80;2.60;;;;;;;;;;5036792;28;20534;-82
2023/11/12 11:44:32;;;;;;;2.42;2.22;;;;;;;;;;5037142;28;20819;-81
2023/11/12 11:47:14;;;;;;;1.80;1.70;;;;;;;;;;5037616;28;20459;-81
2023/11/12 11:49:43;;;;;;;1.70;1.60;;;;;;;;;;5037154;28;20443;-80
2023/11/12 11:52:09;;;;;;;1.88;1.70;;;;;;;;;;5041111;28;20435;-81
2023/11/12 11:54:36;;;;;;;1.85;1.58;;;;;;;;;;5040725;28;20378;-81
2023/11/12 11:57:04;;;;;;;1.52;1.42;;;;;;;;;;5041083;28;20418;-82
2023/11/12 11:59:33;;;;;;;2.47;1.90;;;;;;;;;;5041230;28;20873;-80
2023/11/12 12:01:59;;;;;;;2.80;2.60;;;;;;;;;;5039952;28;20845;-81
2023/11/12 12:04:25;;;;;;;2.50;2.30;;;;;;;;;;5042080;28;20753;-81
2023/11/12 12:06:52;;;;;;;3.75;3.30;;;;;;;;;;5039550;28;20849;-82
2023/11/12 12:09:19;;;;;;;2.92;2.72;;;;;;;;;;5043208;28;20383;-81
2023/11/12 12:11:46;;;;;;;3.17;2.88;;;;;;;;;;5040376;28;20387;-82
2023/11/12 12:14:12;;;;;;;4.28;3.88;;;;;;;;;;5040854;28;20381;-81
2023/11/12 12:16:42;;;;;;;2.20;2.00;;;;;;;;;;5040527;28;20407;-81
2023/11/12 12:19:08;;;;;;;2.15;1.95;;;;;;;;;;5041556;28;20477;-81
2023/11/12 12:21:36;;;;;;;2.88;2.67;;;;;;;;;;5040235;28;20402;-82
2023/11/12 12:24:02;;;;;;;2.08;1.88;;;;;;;;;;5042272;28;20395;-81
2023/11/12 12:26:28;;;;;;;2.00;1.40;;;;;;;;;;5042483;28;20383;-82
2023/11/12 12:28:54;;;;;;;1.40;1.30;;;;;;;;;;5037481;28;20445;-82
2023/11/12 12:31:20;;;;;;;1.60;1.50;;;;;;;;;;5025713;28;20749;-82
2023/11/12 12:34:06;;;;;;;1.30;1.00;;;;;;;;;;5048844;28;20413;-82
2023/11/12 12:36:34;;;;;;;1.00;0.90;;;;;;;;;;5050456;28;20515;-82
2023/11/12 12:39:01;;;;;;;0.80;0.80;;;;;;;;;;5045393;28;20395;-81
2023/11/12 12:41:30;;;;;;;0.80;0.70;;;;;;;;;;5025228;28;20403;-80
2023/11/12 12:43:56;;;;;;;0.80;0.80;;;;;;;;;;5040421;28;20395;-82
2023/11/12 12:46:41;;;;;;;1.08;0.98;;;;;;;;;;5022199;28;20467;-81
2023/11/12 12:49:12;;;;;;;0.85;0.85;;;;;;;;;;5043514;28;20438;-83
2023/11/12 12:51:49;;;;;;;1.00;0.90;;;;;;;;;;5029794;28;20395;-83
2023/11/12 12:54:16;;;;;;;1.30;1.20;;;;;;;;;;5032833;28;20387;-83
2023/11/12 12:56:46;;;;;;;1.35;0.98;;;;;;;;;;5048942;28;20490;-82
2023/11/12 12:59:12;;;;;;;0.60;0.60;;;;;;;;;;5031331;28;20768;-80
2023/11/12 13:01:44;;;;;;;0.80;0.80;;;;;;;;;;5045184;28;20383;-81
2023/11/12 13:04:11;;;;;;;1.13;0.90;;;;;;;;;;5044732;28;20399;-80
2023/11/12 13:06:38;;;;;;;1.10;1.10;;;;;;;;;;5043378;28;20811;-82
2023/11/12 13:09:25;;;;;;;1.30;1.20;;;;;;;;;;5024476;28;20382;-84
2023/11/12 13:11:52;;;;;;;2.70;2.50;;;;;;;;;;5042941;28;20379;-83
2023/11/12 13:14:19;;;;;;;1.60;1.50;;;;;;;;;;5042273;28;20379;-83
2023/11/12 13:16:45;;;;;;;1.27;1.17;;;;;;;;;;5023514;28;20418;-83
2023/11/12 13:19:14;;;;;;;1.80;1.15;;;;;;;;;;5024151;28;20402;-83
2023/11/12 13:21:49;;;;;;;0.88;0.88;;;;;;;;;;5041174;28;20397;-83
2023/11/12 13:24:15;;;;;;;0.88;0.80;;;;;;;;;;5040043;28;20422;-82
2023/11/12 13:26:42;;;;;;;0.80;0.80;;;;;;;;;;5021683;28;20398;-81
2023/11/12 13:29:08;;;;;;;0.70;0.70;;;;;;;;;;5040259;28;20375;-82
2023/11/12 13:31:36;;;;;;;0.65;0.60;;;;;;;;;;5041043;28;20784;-82
2023/11/12 13:34:04;;;;;;;1.30;1.20;;;;;;;;;;5040006;28;20375;-82
2023/11/12 13:36:31;;;;;;;1.10;1.00;;;;;;;;;;5040712;28;20506;-82
2023/11/12 13:38:57;;;;;;;1.58;1.42;;;;;;;;;;5024039;28;20402;-81
2023/11/12 13:41:27;;;;;;;1.50;1.40;;;;;;;;;;5041136;28;20749;-83
2023/11/12 13:43:53;;;;;;;2.55;1.50;;;;;;;;;;5042564;28;20390;-82
2023/11/12 13:46:19;;;;;;;2.45;2.25;;;;;;;;;;5043049;28;20458;-85
2023/11/12 13:48:45;;;;;;;2.25;1.88;;;;;;;;;;5043733;28;20458;-83
2023/11/12 13:51:11;;;;;;;3.28;2.97;;;;;;;;;;5043192;28;20391;-83
2023/11/12 13:53:41;;;;;;;3.30;3.00;;;;;;;;;;5043520;28;20455;-83
2023/11/12 13:56:07;;;;;;;4.15;3.85;;;;;;;;;;5025169;28;20810;-84
2023/11/12 13:58:34;;;;;;;3.40;3.10;;;;;;;;;;5025616;28;20472;-83
2023/11/12 14:01:01;;;;;;;1.60;1.50;;;;;;;;;;5042789;28;20383;-84
2023/11/12 14:03:27;;;;;;;1.67;1.50;;;;;;;;;;5025225;28;20422;-82
2023/11/12 14:05:53;;;;;;;1.52;1.42;;;;;;;;;;5025040;28;20387;-83
2023/11/12 14:08:19;;;;;;;1.60;1.50;;;;;;;;;;5024910;28;20438;-83
2023/11/12 14:10:51;;;;;;;2.00;1.90;;;;;;;;;;5042260;28;20730;-83
2023/11/12 14:13:17;;;;;;;2.42;1.90;;;;;;;;;;5042256;28;20947;-83
2023/11/12 14:15:48;;;;;;;4.53;4.13;;;;;;;;;;5024585;28;20375;-82
2023/11/12 14:18:14;;;;;;;2.60;2.40;;;;;;;;;;5042260;28;20402;-83
2023/11/12 14:20:40;;;;;;;2.85;2.30;;;;;;;;;;5041944;28;20383;-83
2023/11/12 14:23:08;;;;;;;2.30;2.10;;;;;;;;;;5024096;28;20908;-84
2023/11/12 14:25:34;;;;;;;1.95;1.83;;;;;;;;;;5024726;28;20391;-83
2023/11/12 14:28:04;;;;;;;2.33;2.13;;;;;;;;;;5024950;28;20521;-83
2023/11/12 14:30:32;;;;;;;2.80;2.60;;;;;;;;;;5045327;28;20382;-82
2023/11/12 14:33:00;;;;;;;2.85;2.65;;;;;;;;;;5025281;28;20387;-84
2023/11/12 14:35:26;;;;;;;2.80;2.60;;;;;;;;;;5044331;28;20395;-85